METAR/TAF Report

Daten letztmals aktualisiert: 18.09.2018 - 18:00 LT

METARs

 LSZG 181550Z VRB01KT 9999 FEW050TCU 28/13 Q1017 NOSIG 
 LSZB 181550Z 15004KT 120V190 9999 FEW060TCU 28/16 Q1017 NOSIG 
 LSGC 181550Z AUTO 19004KT 140V220 9999 NCD 22/12 Q1021 
 LFSB 181530Z VRB03KT 9999 FEW063CB SCT250 30/15 Q1016 NOSIG 
 LSGG 181550Z 21009KT 9999 FEW050 29/11 Q1017 NOSIG 
 LSGS 181550Z 26013KT 9999 SCT100 27/12 Q1016 
 LSZH 181550Z VRB01KT CAVOK 26/12 Q1018 NOSIG 
 LSZL 181520Z AUTO VRB02KT 9999NDV FEW057 25/19 Q1018 RMK 
 LSZA 181550Z VRB03KT 9999 FEW050TCU 25/18 Q1019 NOSIG 
 LSZS 181550Z 02009KT 9999 BKN070 14/10 Q1025 RMK U 

TAFs

 TAF LSZG 181425Z 1815/1824 VRB03KT 9999 FEW050 
   TEMPO 1815/1819 FEW050TCU 
   PROB30 
   TEMPO 1815/1818 SHRA 
   BECMG 1818/1821 CAVOK 
 TAF LSZB 181425Z 1815/1824 VRB03KT 9999 FEW060 
   PROB30 
   TEMPO 1815/1817 SHRA FEW060TCU 
   TEMPO 1816/1823 CAVOK 
 TAF LSGC 181425Z 1815/1824 VRB04KT 9999 SCT045 
   TEMPO 1815/1818 FEW055TCU 
 TAF LFSB 181100Z 1812/1912 27006KT CAVOK 
   TEMPO 1812/1821 FEW060CB 
   PROB30 1815/1820 3000 TSRA SCT060CB 
 TAF LSGG 181425Z 1815/1921 VRB04KT 9999 FEW050 TX28/1815Z TN14/1905Z TX29/1915Z 
   TEMPO 1815/1817 FEW050TCU 
 TAF LSGS 181425Z 1815/1824 26012KT 9999 SCT100 
   TEMPO 1817/1819 VRB04KT 
 TAF LSZH 181425Z 1815/1921 VRB03KT CAVOK TX26/1815Z TN12/1904Z TX28/1914Z 
   BECMG 1901/1903 4000 MIFG NSC 
   BECMG 1903/1906 1500 BCFG 
   PROB30 1904/1907 0500 FG VV002 
   BECMG 1907/1909 3000 BR BKN004 
   BECMG 1909/1911 9999 FEW050 
   BECMG 1915/1918 CAVOK 
 TAF LSZL 181125Z 1812/1821 VRB02KT 8000 FEW020 SCT050 BKN090 
   PROB40 
   TEMPO 1812/1821 SHRA SCT040TCU 
   PROB30 
   TEMPO 1812/1821 TS SCT040CB 
 TAF LSZA 181425Z 1815/1824 VRB02KT 9999 FEW040TCU 
   BECMG 1815/1817 SCT050 
 TAF LSZS 181425Z 1815/1824 22010KT 9999 FEW030 BKN060 TX16/1815Z 
   PROB40 
   TEMPO 1815/1819 SHRA SCT030TCU 
   BECMG 1816/1818 VRB03KT 
   BECMG 1821/1824 CAVOK